Time;durP1;ratioP1;P1;durP2;ratioP2;P2;SDS_P1;SDS_P2;PMS_P1;PMS_P2;Temp;Humidity;BMP_temperature;BMP_pressure;BME280_temperature;BME280_humidity;BME280_pressure;Samples;Min_cycle;Max_cycle;Signal;HPM_P1;HPM_P2
2021/01/22 00:01:21;;;;;;;0.60;0.50;;;11.20;1.00;;;;;;5000299;28;20026;-67
2021/01/22 00:03:47;;;;;;;0.93;0.63;;;11.20;3.20;;;;;;4999947;28;20022;-67
2021/01/22 00:06:13;;;;;;;1.25;0.85;;;11.10;25.20;;;;;;5006582;28;20029;-67
2021/01/22 00:08:38;;;;;;;0.88;0.60;;;11.00;43.30;;;;;;5011062;28;20109;-68
2021/01/22 00:11:05;;;;;;;0.50;0.50;;;11.00;24.10;;;;;;5003817;28;20040;-67
2021/01/22 00:13:30;;;;;;;0.80;0.80;;;10.90;71.50;;;;;;5002722;28;20058;-67
2021/01/22 00:15:56;;;;;;;0.93;0.60;;;10.80;99.90;;;;;;5006346;28;20033;-67
2021/01/22 00:18:21;;;;;;;1.02;0.52;;;10.80;99.90;;;;;;5011535;28;20084;-67
2021/01/22 00:24:07;;;;;;;0.80;0.70;;;10.70;99.90;;;;;;5675837;23;20050;-68
2021/01/22 00:26:33;;;;;;;0.65;0.60;;;10.50;99.90;;;;;;5007159;28;20040;-68
2021/01/22 00:28:59;;;;;;;0.60;0.55;;;10.50;99.90;;;;;;5015920;28;20085;-71
2021/01/22 00:31:24;;;;;;;0.80;0.80;;;10.40;99.90;;;;;;5004017;28;20030;-69
2021/01/22 00:33:50;;;;;;;1.02;0.80;;;10.30;99.90;;;;;;5008678;28;20403;-71
2021/01/22 00:36:15;;;;;;;0.55;0.52;;;10.30;99.90;;;;;;4994805;28;20025;-69
2021/01/22 00:38:41;;;;;;;0.63;0.60;;;10.40;99.90;;;;;;4999200;28;20049;-69
2021/01/22 00:41:06;;;;;;;0.75;0.65;;;10.20;99.90;;;;;;5007248;28;20025;-69
2021/01/22 00:43:32;;;;;;;1.17;1.10;;;10.20;99.90;;;;;;5010556;28;20022;-68
2021/01/22 00:45:58;;;;;;;0.60;0.60;;;10.00;99.90;;;;;;5007910;28;20025;-68
2021/01/22 00:48:23;;;;;;;0.40;0.40;;;10.00;99.90;;;;;;5001749;28;20366;-67
2021/01/22 00:50:49;;;;;;;0.40;0.40;;;10.00;99.90;;;;;;5004868;28;20026;-68
2021/01/22 00:53:15;;;;;;;0.50;0.50;;;10.00;99.90;;;;;;5003409;28;20033;-68
2021/01/22 00:55:40;;;;;;;0.50;0.50;;;10.00;99.90;;;;;;5006563;28;20029;-70
2021/01/22 00:58:06;;;;;;;0.40;0.40;;;10.10;99.90;;;;;;5001733;28;20038;-68
2021/01/22 01:00:32;;;;;;;0.93;0.65;;;10.00;99.90;;;;;;4999616;28;20019;-67
2021/01/22 01:02:58;;;;;;;1.20;0.63;;;10.00;99.90;;;;;;5007382;28;20432;-68
2021/01/22 01:05:23;;;;;;;0.68;0.68;;;10.00;99.90;;;;;;5004274;28;20114;-69
2021/01/22 01:07:49;;;;;;;0.47;0.47;;;9.90;99.90;;;;;;5003451;28;20041;-69
2021/01/22 01:10:14;;;;;;;0.70;0.60;;;9.90;99.90;;;;;;4999137;28;20030;-69
2021/01/22 01:12:40;;;;;;;1.02;0.60;;;10.00;99.90;;;;;;4990354;28;20033;-68
2021/01/22 01:15:07;;;;;;;1.15;0.60;;;9.80;99.90;;;;;;5004292;28;20034;-69
2021/01/22 01:17:33;;;;;;;1.25;1.00;;;9.80;99.90;;;;;;5004494;28;20034;-68
2021/01/22 01:19:58;;;;;;;1.13;0.95;;;9.80;99.90;;;;;;5001077;28;20031;-68
2021/01/22 01:22:24;;;;;;;0.50;0.50;;;9.70;99.90;;;;;;5002931;28;20034;-68
2021/01/22 01:24:50;;;;;;;1.52;0.65;;;9.70;99.90;;;;;;5005393;28;20021;-68
2021/01/22 01:27:15;;;;;;;0.50;0.50;;;9.70;99.90;;;;;;5011038;28;20040;-69
2021/01/22 01:29:41;;;;;;;0.88;0.55;;;9.60;99.90;;;;;;4997460;28;20053;-69
2021/01/22 01:32:06;;;;;;;0.60;0.60;;;9.60;99.90;;;;;;4997408;28;20027;-68
2021/01/22 01:34:32;;;;;;;1.10;0.60;;;9.50;99.90;;;;;;5008416;28;20030;-68
2021/01/22 01:36:57;;;;;;;4.82;0.50;;;9.60;99.90;;;;;;5000130;28;20038;-68
2021/01/22 01:39:23;;;;;;;0.73;0.50;;;9.60;99.90;;;;;;5003733;28;20029;-68
2021/01/22 01:41:49;;;;;;;1.05;0.60;;;9.60;99.90;;;;;;5008889;28;20027;-68
2021/01/22 01:44:14;;;;;;;1.10;0.60;;;9.60;99.90;;;;;;5007216;28;20026;-68
2021/01/22 01:46:40;;;;;;;0.40;0.40;;;9.60;99.90;;;;;;5002292;28;20030;-69
2021/01/22 01:49:05;;;;;;;0.68;0.47;;;9.70;99.90;;;;;;5005268;28;20057;-68
2021/01/22 01:51:31;;;;;;;0.38;0.38;;;9.70;99.90;;;;;;5001640;28;20112;-69
2021/01/22 01:53:57;;;;;;;0.70;0.70;;;9.80;99.90;;;;;;5012022;28;20219;-69
2021/01/22 01:56:23;;;;;;;0.50;0.50;;;9.70;99.90;;;;;;4998987;28;20118;-69
2021/01/22 01:58:49;;;;;;;0.50;0.47;;;9.90;99.90;;;;;;5010658;28;20026;-68
2021/01/22 02:01:17;;;;;;;0.57;0.50;;;10.00;99.90;;;;;;4999502;28;20125;-69
2021/01/22 02:03:43;;;;;;;0.40;0.40;;;10.10;99.90;;;;;;5009745;28;20520;-69
2021/01/22 02:06:09;;;;;;;0.50;0.50;;;10.00;99.90;;;;;;5008037;28;20031;-69
2021/01/22 02:08:35;;;;;;;0.88;0.43;;;10.00;99.90;;;;;;5001793;28;20033;-68
2021/01/22 02:11:02;;;;;;;0.40;0.40;;;10.00;99.90;;;;;;5007060;28;20501;-70
2021/01/22 02:13:30;;;;;;;1.23;0.57;;;10.20;99.90;;;;;;5003848;28;20117;-68
2021/01/22 02:15:56;;;;;;;2.15;0.65;;;10.20;99.90;;;;;;5016056;28;20026;-68
2021/01/22 02:18:24;;;;;;;0.60;0.60;;;10.10;99.90;;;;;;5016932;28;20084;-69
2021/01/22 02:21:11;;;;;;;0.40;0.40;;;10.10;99.90;;;;;;5015513;28;20026;-67
2021/01/22 02:23:40;;;;;;;1.00;0.45;;;10.10;99.90;;;;;;5004880;28;20038;-67
2021/01/22 02:26:28;;;;;;;1.35;0.50;;;10.00;99.90;;;;;;5014240;28;20033;-68
2021/01/22 02:29:05;;;;;;;0.77;0.60;;;10.10;99.90;;;;;;5008213;28;20026;-70
2021/01/22 02:31:35;;;;;;;0.60;0.60;;;10.10;99.90;;;;;;5004513;28;20029;-68
2021/01/22 02:34:05;;;;;;;0.88;0.60;;;10.10;99.90;;;;;;5006613;28;20034;-69
2021/01/22 02:36:40;;;;;;;1.23;0.98;;;10.10;99.90;;;;;;4999361;28;20030;-68
2021/01/22 02:39:09;;;;;;;1.00;0.60;;;10.10;99.90;;;;;;5002744;28;20026;-67
2021/01/22 02:41:37;;;;;;;0.98;0.60;;;10.00;99.90;;;;;;5014106;28;20177;-68
2021/01/22 02:44:04;;;;;;;1.05;0.65;;;9.90;99.90;;;;;;5000851;28;20101;-68
2021/01/22 02:46:31;;;;;;;3.10;0.70;;;10.00;99.90;;;;;;5007164;28;20112;-69
2021/01/22 02:48:58;;;;;;;0.93;0.68;;;10.00;99.90;;;;;;5009556;28;20468;-69
2021/01/22 02:51:24;;;;;;;0.98;0.57;;;10.00;99.90;;;;;;5016932;28;20026;-69
2021/01/22 02:53:49;;;;;;;1.48;0.77;;;9.90;99.90;;;;;;5021615;28;20033;-69
2021/01/22 02:56:31;;;;;;;1.58;0.60;;;9.90;99.90;;;;;;5010619;28;20036;-68
2021/01/22 02:58:59;;;;;;;;;;;9.80;99.90;;;;;;5008439;28;20030;-68
2021/01/22 03:01:29;;;;;;;1.52;0.52;;;9.90;99.90;;;;;;5005798;28;20017;-68
2021/01/22 03:04:09;;;;;;;0.73;0.60;;;9.80;99.90;;;;;;4998052;28;20470;-70
2021/01/22 03:06:45;;;;;;;1.25;0.70;;;9.80;99.90;;;;;;5004857;28;20030;-69
2021/01/22 03:09:17;;;;;;;1.55;0.68;;;9.80;99.90;;;;;;5005130;28;20446;-71
2021/01/22 03:11:47;;;;;;;0.60;0.60;;;9.70;99.90;;;;;;5007048;28;20037;-70
2021/01/22 03:14:13;;;;;;;0.82;0.70;;;9.60;99.90;;;;;;5010828;28;20053;-68
2021/01/22 03:16:39;;;;;;;1.63;0.73;;;9.60;99.90;;;;;;5010699;28;20083;-68
2021/01/22 03:19:05;;;;;;;1.23;0.63;;;9.50;99.90;;;;;;5015983;28;20022;-69
2021/01/22 03:21:31;;;;;;;1.35;0.88;;;9.40;99.90;;;;;;5012587;28;20033;-67
2021/01/22 03:23:58;;;;;;;1.42;0.80;;;9.30;99.90;;;;;;5001914;28;20393;-68
2021/01/22 03:26:23;;;;;;;2.95;0.90;;;9.30;99.90;;;;;;5008687;28;20389;-68
2021/01/22 03:28:49;;;;;;;3.78;0.95;;;9.30;99.90;;;;;;5007330;28;20105;-68
2021/01/22 03:31:15;;;;;;;2.47;0.93;;;9.30;99.90;;;;;;5009108;28;20559;-68
2021/01/22 03:33:40;;;;;;;1.92;0.93;;;9.40;99.90;;;;;;5013878;28;20079;-69
2021/01/22 03:36:07;;;;;;;2.63;0.80;;;9.40;99.90;;;;;;5010892;28;20034;-68
2021/01/22 03:38:33;;;;;;;2.38;0.95;;;9.30;99.90;;;;;;5009639;28;20038;-67
2021/01/22 03:40:59;;;;;;;2.70;0.75;;;9.30;99.90;;;;;;5022400;28;20030;-68
2021/01/22 03:43:24;;;;;;;1.25;0.75;;;9.20;99.90;;;;;;5003406;28;20029;-68
2021/01/22 03:45:50;;;;;;;2.47;0.90;;;9.10;99.90;;;;;;5003144;28;20022;-68
2021/01/22 03:48:16;;;;;;;2.47;0.70;;;9.10;99.90;;;;;;5005131;28;20096;-68
2021/01/22 03:50:41;;;;;;;3.13;1.55;;;9.20;99.90;;;;;;4999459;28;20485;-71
2021/01/22 03:53:08;;;;;;;2.65;0.80;;;9.20;99.90;;;;;;5006372;28;20026;-68
2021/01/22 03:55:34;;;;;;;3.28;1.23;;;9.20;99.90;;;;;;5013250;28;20030;-68
2021/01/22 03:57:59;;;;;;;3.05;1.00;;;9.20;99.90;;;;;;5011116;28;20127;-68
2021/01/22 04:00:25;;;;;;;2.55;1.00;;;9.20;99.90;;;;;;4998569;28;20018;-67
2021/01/22 04:02:50;;;;;;;2.33;0.68;;;9.20;99.90;;;;;;5003192;28;20081;-69
2021/01/22 04:05:16;;;;;;;2.70;0.98;;;9.10;99.90;;;;;;4998330;28;20030;-69
2021/01/22 04:07:41;;;;;;;2.45;0.82;;;9.00;99.90;;;;;;5007915;28;20034;-68
2021/01/22 04:10:07;;;;;;;1.65;0.60;;;9.10;99.90;;;;;;5001922;28;20044;-69
2021/01/22 04:12:35;;;;;;;2.45;0.80;;;9.20;99.90;;;;;;4999212;28;20100;-69
2021/01/22 04:15:04;;;;;;;2.30;0.95;;;9.20;99.90;;;;;;5000025;28;20501;-69
2021/01/22 04:17:30;;;;;;;2.85;0.70;;;9.20;99.90;;;;;;5011609;28;20022;-68
2021/01/22 04:19:56;;;;;;;3.58;0.88;;;9.20;99.90;;;;;;5006492;28;20431;-69
2021/01/22 04:22:21;;;;;;;2.40;1.02;;;9.10;99.90;;;;;;5012147;28;20061;-67
2021/01/22 04:24:47;;;;;;;3.42;0.98;;;9.10;99.90;;;;;;5004768;28;20097;-68
2021/01/22 04:27:12;;;;;;;2.35;0.93;;;9.20;99.90;;;;;;5005362;28;20057;-69
2021/01/22 04:29:38;;;;;;;2.70;1.00;;;9.20;99.90;;;;;;4998597;28;20027;-69
2021/01/22 04:32:04;;;;;;;1.50;0.88;;;9.10;99.90;;;;;;5002775;28;20174;-68
2021/01/22 04:34:29;;;;;;;2.15;0.95;;;9.20;99.90;;;;;;5009764;28;20065;-69
2021/01/22 04:36:55;;;;;;;4.00;1.40;;;9.30;99.90;;;;;;5013607;28;20026;-68
2021/01/22 04:39:21;;;;;;;2.45;0.90;;;9.30;99.90;;;;;;5015642;28;20032;-68
2021/01/22 04:41:47;;;;;;;2.47;0.95;;;9.30;99.90;;;;;;5005101;28;20045;-69
2021/01/22 04:44:13;;;;;;;1.42;0.70;;;9.30;99.90;;;;;;5017194;28;20018;-69
2021/01/22 04:46:40;;;;;;;1.90;1.10;;;9.30;99.90;;;;;;5013417;28;20081;-69
2021/01/22 04:49:06;;;;;;;1.45;0.80;;;9.30;99.90;;;;;;5024828;28;20049;-68
2021/01/22 04:51:36;;;;;;;2.03;0.65;;;9.40;76.20;;;;;;5004573;28;20034;-67
2021/01/22 04:54:12;;;;;;;2.20;0.90;;;9.40;30.00;;;;;;4993309;28;20037;-68
2021/01/22 04:56:43;;;;;;;1.95;0.73;;;9.40;60.10;;;;;;5009785;28;20033;-68
2021/01/22 04:59:21;;;;;;;2.35;0.77;;;9.40;53.60;;;;;;4999516;28;20030;-69
2021/01/22 05:01:47;;;;;;;2.00;0.98;;;9.30;71.90;;;;;;5000100;28;20076;-69
2021/01/22 05:04:14;;;;;;;2.60;0.60;;;9.40;74.30;;;;;;5008865;28;20489;-68
2021/01/22 05:06:39;;;;;;;2.13;0.73;;;9.40;54.90;;;;;;5005255;28;20030;-68
2021/01/22 05:09:05;;;;;;;2.58;0.70;;;9.40;72.90;;;;;;4997424;28;20030;-68
2021/01/22 05:11:31;;;;;;;1.30;0.60;;;9.40;69.60;;;;;;5009302;28;20476;-69
2021/01/22 05:13:57;;;;;;;2.53;0.85;;;9.50;56.60;;;;;;5000977;28;20109;-70
2021/01/22 05:16:24;;;;;;;1.17;0.80;;;9.50;65.10;;;;;;5000478;28;20033;-68
2021/01/22 05:18:50;;;;;;;0.80;0.60;;;9.60;50.70;;;;;;5006112;28;20050;-69
2021/01/22 05:21:18;;;;;;;1.77;0.60;;;9.60;58.70;;;;;;5010202;28;20076;-68
2021/01/22 05:23:44;;;;;;;1.45;0.60;;;9.50;90.40;;;;;;5001872;28;20034;-69
2021/01/22 05:26:12;;;;;;;2.67;0.65;;;9.50;94.40;;;;;;5004590;28;20053;-69
2021/01/22 05:28:43;;;;;;;0.80;0.40;;;9.60;95.00;;;;;;5008193;28;20244;-68
2021/01/22 05:31:14;;;;;;;1.35;0.95;;;9.60;99.90;;;;;;5007514;28;20401;-69
2021/01/22 05:33:41;;;;;;;0.95;0.43;;;9.50;99.90;;;;;;5007575;28;20555;-68
2021/01/22 05:36:25;;;;;;;1.05;0.60;;;9.50;99.90;;;;;;5004315;28;20035;-68
2021/01/22 05:38:52;;;;;;;0.30;0.30;;;9.50;99.90;;;;;;5003992;28;20394;-68
2021/01/22 05:41:18;;;;;;;0.50;0.40;;;9.50;99.90;;;;;;5005961;28;20033;-68
2021/01/22 05:43:44;;;;;;;1.10;0.70;;;9.50;99.90;;;;;;5009594;28;20026;-68
2021/01/22 05:46:15;;;;;;;0.85;0.60;;;9.60;99.90;;;;;;4999444;28;20058;-68
2021/01/22 05:48:41;;;;;;;2.20;0.50;;;9.70;99.90;;;;;;5010506;28;20030;-67
2021/01/22 05:51:07;;;;;;;1.75;0.43;;;9.60;99.90;;;;;;5005250;28;20057;-67
2021/01/22 05:53:33;;;;;;;0.77;0.40;;;9.50;99.90;;;;;;5001513;28;20109;-68
2021/01/22 05:56:05;;;;;;;0.82;0.50;;;9.60;99.90;;;;;;4996265;28;20389;-69
2021/01/22 05:58:32;;;;;;;1.50;0.40;;;9.60;99.90;;;;;;4999482;28;20428;-68
2021/01/22 06:01:21;;;;;;;0.60;0.50;;;9.50;99.90;;;;;;5005833;28;20079;-68
2021/01/22 06:03:47;;;;;;;0.45;0.30;;;9.60;99.90;;;;;;5003810;28;20030;-69
2021/01/22 06:06:14;;;;;;;0.40;0.38;;;9.50;99.90;;;;;;5004388;28;20061;-69
2021/01/22 06:08:49;;;;;;;0.70;0.50;;;9.50;99.90;;;;;;5007225;28;20038;-67
2021/01/22 06:11:26;;;;;;;1.52;0.45;;;9.60;99.90;;;;;;5004649;28;20022;-68
2021/01/22 06:13:54;;;;;;;1.73;0.60;;;9.70;99.90;;;;;;5007679;28;20130;-69
2021/01/22 06:16:21;;;;;;;0.63;0.40;;;9.60;99.90;;;;;;5005373;28;20049;-69
2021/01/22 06:18:58;;;;;;;0.88;0.47;;;9.70;99.90;;;;;;5009389;28;20125;-68
2021/01/22 06:21:30;;;;;;;1.48;0.50;;;9.60;99.90;;;;;;5006071;28;20041;-68
2021/01/22 06:23:55;;;;;;;0.73;0.52;;;9.70;99.90;;;;;;5010851;28;20510;-68
2021/01/22 06:26:22;;;;;;;0.70;0.40;;;9.60;99.90;;;;;;4998882;28;20034;-68
2021/01/22 06:28:51;;;;;;;0.35;0.35;;;9.60;99.90;;;;;;5026601;28;20054;-68
2021/01/22 06:31:18;;;;;;;5.90;0.50;;;9.60;99.90;;;;;;5005646;28;20493;-68
2021/01/22 06:33:46;;;;;;;3.92;0.73;;;9.70;99.90;;;;;;5000246;28;20183;-68
2021/01/22 06:36:12;;;;;;;1.80;0.60;;;9.70;99.90;;;;;;5010728;28;20041;-72
2021/01/22 06:38:42;;;;;;;1.80;1.02;;;9.60;99.90;;;;;;5000279;28;20493;-68
2021/01/22 06:41:09;;;;;;;2.33;0.80;;;9.70;99.90;;;;;;5009697;28;20028;-67
2021/01/22 06:43:36;;;;;;;1.65;0.82;;;9.60;99.90;;;;;;5002189;28;20026;-67
2021/01/22 06:46:07;;;;;;;2.63;0.93;;;9.60;99.90;;;;;;5004577;28;20034;-67
2021/01/22 06:48:58;;;;;;;0.50;0.50;;;9.60;99.90;;;;;;5012489;28;20034;-67
2021/01/22 06:51:26;;;;;;;1.75;0.70;;;9.70;99.90;;;;;;5014986;28;20060;-67
2021/01/22 06:54:11;;;;;;;1.10;0.85;;;9.70;99.90;;;;;;5006258;28;20490;-67
2021/01/22 06:56:55;;;;;;;1.55;0.88;;;9.70;89.00;;;;;;5004573;28;20022;-67
2021/01/22 06:59:28;;;;;;;1.77;0.60;;;9.70;92.70;;;;;;5008417;28;20037;-67
2021/01/22 07:01:54;;;;;;;1.38;0.50;;;9.70;90.60;;;;;;5007775;28;20022;-67
2021/01/22 07:04:29;;;;;;;1.38;0.60;;;9.70;94.30;;;;;;5000824;28;20041;-67
2021/01/22 07:06:56;;;;;;;1.23;0.50;;;9.60;99.90;;;;;;5005651;28;20033;-67
2021/01/22 07:09:49;;;;;;;2.55;0.63;;;9.60;94.50;;;;;;5010755;28;20030;-68
2021/01/22 07:12:38;;;;;;;3.22;1.00;;;9.70;96.30;;;;;;5001413;28;20033;-68
2021/01/22 07:15:24;;;;;;;0.93;0.68;;;9.60;94.40;;;;;;5005886;28;20421;-66
2021/01/22 07:17:50;;;;;;;0.77;0.60;;;9.70;72.20;;;;;;5002037;28;20081;-66
2021/01/22 07:20:16;;;;;;;4.43;0.75;;;9.60;96.40;;;;;;5001309;28;20109;-67
2021/01/22 07:22:56;;;;;;;0.63;0.50;;;9.60;93.10;;;;;;4996478;28;20054;-67
2021/01/22 07:25:54;;;;;;;1.23;0.63;;;9.50;98.50;;;;;;5008568;28;20775;-67
2021/01/22 07:28:22;;;;;;;0.30;0.30;;;9.60;98.60;;;;;;5009804;28;20124;-67
2021/01/22 07:30:48;;;;;;;1.30;0.70;;;9.60;99.90;;;;;;5004696;28;20022;-68
2021/01/22 07:33:26;;;;;;;1.25;0.60;;;9.60;88.90;;;;;;5013384;28;20058;-68
2021/01/22 07:36:14;;;;;;;1.27;0.90;;;9.60;68.60;;;;;;5017280;28;20030;-68
2021/01/22 07:38:41;;;;;;;1.08;0.70;;;9.60;72.10;;;;;;5004043;28;20033;-68
2021/01/22 07:41:11;;;;;;;0.90;0.60;;;9.60;72.90;;;;;;4999350;28;20023;-70
2021/01/22 07:43:37;;;;;;;2.00;0.70;;;9.60;90.10;;;;;;5004836;28;20077;-68
2021/01/22 07:46:07;;;;;;;1.23;0.60;;;9.60;89.20;;;;;;5012162;28;20393;-67
2021/01/22 07:48:34;;;;;;;1.98;0.93;;;9.60;84.40;;;;;;5005319;28;20105;-71
2021/01/22 07:51:00;;;;;;;1.23;0.60;;;9.60;71.20;;;;;;5005636;28;20042;-68
2021/01/22 07:53:26;;;;;;;4.90;0.75;;;9.60;54.70;;;;;;5014317;28;20037;-68
2021/01/22 07:55:53;;;;;;;1.30;0.60;;;9.70;30.60;;;;;;5014374;28;20030;-67
2021/01/22 07:58:19;;;;;;;1.90;0.50;;;9.70;5.40;;;;;;5013909;28;20128;-67
2021/01/22 08:00:45;;;;;;;0.55;0.50;;;9.80;1.00;;;;;;5014036;28;20382;-68
2021/01/22 08:03:13;;;;;;;2.85;0.80;;;9.80;1.00;;;;;;5014177;28;20498;-67
2021/01/22 08:05:39;;;;;;;5.40;0.60;;;9.90;1.00;;;;;;5014276;28;20018;-67
2021/01/22 08:08:20;;;;;;;2.85;1.25;;;9.90;1.00;;;;;;5015312;28;20101;-67
2021/01/22 08:10:46;;;;;;;2.60;0.63;;;10.00;1.00;;;;;;5013905;28;20090;-69
2021/01/22 08:13:12;;;;;;;6.80;0.80;;;10.10;1.00;;;;;;5013482;28;20061;-67
2021/01/22 08:15:38;;;;;;;2.97;0.90;;;10.10;1.00;;;;;;5014071;28;20104;-67
2021/01/22 08:18:05;;;;;;;1.77;0.70;;;10.10;1.00;;;;;;5013802;28;20112;-67
2021/01/22 08:20:32;;;;;;;3.42;0.68;;;10.20;1.00;;;;;;5013583;28;20551;-67
2021/01/22 08:22:58;;;;;;;1.50;0.60;;;10.30;1.00;;;;;;5013578;28;20022;-67
2021/01/22 08:25:31;;;;;;;1.05;0.40;;;10.30;1.00;;;;;;5013561;28;20026;-67
2021/01/22 08:27:58;;;;;;;1.15;0.63;;;10.40;1.00;;;;;;5012820;28;20469;-66
2021/01/22 08:30:25;;;;;;;3.65;0.93;;;10.50;1.00;;;;;;5014273;28;20102;-69
2021/01/22 08:32:53;;;;;;;1.50;0.63;;;10.60;1.00;;;;;;5012604;28;20034;-67
2021/01/22 08:35:20;;;;;;;2.85;0.80;;;10.70;99.90;;;;;;5013990;28;20137;-67
2021/01/22 08:37:46;;;;;;;1.73;0.50;;;10.70;99.90;;;;;;5014030;28;20366;-67
2021/01/22 08:40:12;;;;;;;5.50;0.80;;;10.80;99.90;;;;;;5014018;28;20033;-69
2021/01/22 08:42:38;;;;;;;2.70;0.50;;;10.80;99.90;;;;;;5014031;28;20026;-67
2021/01/22 08:45:06;;;;;;;4.53;0.80;;;10.90;99.90;;;;;;5013603;28;20548;-67
2021/01/22 08:47:40;;;;;;;1.95;0.80;;;10.90;99.90;;;;;;5013701;28;20018;-68
2021/01/22 08:50:06;;;;;;;1.40;0.60;;;10.90;99.90;;;;;;5012432;28;20057;-67
2021/01/22 08:52:32;;;;;;;1.23;0.65;;;11.10;99.90;;;;;;5013456;28;20026;-67
2021/01/22 08:54:58;;;;;;;0.95;0.50;;;11.20;99.90;;;;;;5013731;28;20109;-68
2021/01/22 08:57:26;;;;;;;3.05;0.70;;;11.30;99.90;;;;;;5011831;28;20220;-67
2021/01/22 08:59:59;;;;;;;3.65;0.88;;;11.40;62.70;;;;;;5012036;28;20033;-68
2021/01/22 09:02:35;;;;;;;1.70;0.80;;;11.50;72.20;;;;;;5013349;28;20113;-68
2021/01/22 09:05:04;;;;;;;2.80;0.63;;;11.60;1.00;;;;;;5013361;28;20022;-68
2021/01/22 09:07:29;;;;;;;1.45;0.70;;;11.60;1.00;;;;;;5013197;28;20022;-67
2021/01/22 09:09:55;;;;;;;1.40;0.63;;;11.60;1.00;;;;;;5013548;28;20037;-67
2021/01/22 09:12:26;;;;;;;1.88;0.70;;;11.70;1.00;;;;;;5013395;28;20030;-68
2021/01/22 09:15:06;;;;;;;1.90;0.70;;;11.70;1.00;;;;;;5013439;28;20049;-67
2021/01/22 09:17:43;;;;;;;2.83;0.75;;;11.80;99.90;;;;;;5014756;28;20389;-68
2021/01/22 09:20:09;;;;;;;1.85;0.60;;;11.70;1.00;;;;;;5015194;28;20461;-69
2021/01/22 09:22:35;;;;;;;2.17;0.60;;;11.60;1.00;;;;;;5014406;28;20059;-66
2021/01/22 09:25:06;;;;;;;1.63;0.60;;;11.60;1.00;;;;;;5013644;28;20042;-67
2021/01/22 09:27:34;;;;;;;1.55;0.45;;;11.60;1.00;;;;;;5013204;28;20499;-67
2021/01/22 09:29:59;;;;;;;3.38;0.43;;;11.60;1.00;;;;;;5021969;28;20504;-67
2021/01/22 09:32:25;;;;;;;2.38;1.13;;;11.60;1.00;;;;;;5022625;28;20030;-67
2021/01/22 09:34:50;;;;;;;4.65;0.75;;;11.70;1.00;;;;;;5018544;28;20505;-67
2021/01/22 09:37:16;;;;;;;3.03;0.73;;;11.80;1.00;;;;;;5013694;28;20042;-66
2021/01/22 09:39:42;;;;;;;2.58;0.65;;;11.80;1.00;;;;;;5021340;28;20049;-67
2021/01/22 09:42:08;;;;;;;1.90;0.80;;;11.90;99.90;;;;;;5026189;28;20018;-67
2021/01/22 09:44:35;;;;;;;1.50;0.50;;;12.10;99.90;;;;;;5023863;28;20018;-67
2021/01/22 09:47:00;;;;;;;4.35;0.70;;;12.20;99.90;;;;;;5018807;28;20049;-66
2021/01/22 09:49:26;;;;;;;2.60;0.70;;;12.20;99.90;;;;;;5015915;28;20092;-67
2021/01/22 09:51:52;;;;;;;3.33;0.82;;;12.20;99.90;;;;;;5016655;28;20026;-66
2021/01/22 09:54:17;;;;;;;1.77;0.77;;;12.30;24.70;;;;;;5015743;28;20099;-68
2021/01/22 09:56:43;;;;;;;3.67;0.80;;;12.30;94.00;;;;;;5015323;28;20057;-68
2021/01/22 09:59:09;;;;;;;1.90;0.80;;;12.30;49.10;;;;;;5015371;28;20489;-67
2021/01/22 10:01:37;;;;;;;7.20;1.00;;;12.30;26.10;;;;;;5013923;28;20076;-66
2021/01/22 10:04:03;;;;;;;4.55;0.95;;;12.30;78.40;;;;;;5013390;28;20028;-68
2021/01/22 10:06:30;;;;;;;3.60;1.33;;;12.40;91.30;;;;;;5013279;28;20068;-67
2021/01/22 10:08:56;;;;;;;1.98;0.90;;;12.50;1.00;;;;;;5015711;28;20029;-67
2021/01/22 10:11:22;;;;;;;1.92;0.77;;;12.50;1.00;;;;;;5016102;28;20026;-67
2021/01/22 10:13:55;;;;;;;3.05;0.65;;;12.70;99.90;;;;;;5016724;28;20018;-66
2021/01/22 10:16:25;;;;;;;2.95;0.90;;;12.80;99.90;;;;;;5016371;28;20109;-67
2021/01/22 10:18:52;;;;;;;3.13;1.02;;;12.80;99.90;;;;;;5016516;28;20073;-68
2021/01/22 10:21:18;;;;;;;1.17;0.70;;;12.90;99.90;;;;;;5015922;28;20030;-67
2021/01/22 10:23:48;;;;;;;4.25;0.70;;;12.90;89.40;;;;;;5016222;28;20030;-67
2021/01/22 10:26:14;;;;;;;4.10;1.08;;;12.90;26.90;;;;;;5016340;28;20076;-66
2021/01/22 10:28:40;;;;;;;2.35;0.70;;;13.00;1.00;;;;;;5016533;28;20508;-67
2021/01/22 10:31:06;;;;;;;3.50;1.27;;;12.90;99.90;;;;;;5018111;28;20044;-67
2021/01/22 10:33:32;;;;;;;3.63;1.17;;;12.90;99.90;;;;;;5018731;28;20105;-67
2021/01/22 10:35:58;;;;;;;2.72;0.93;;;12.90;99.90;;;;;;5015767;28;20108;-68
2021/01/22 10:38:23;;;;;;;2.05;0.68;;;12.90;99.90;;;;;;5016173;28;20041;-68
2021/01/22 10:40:49;;;;;;;3.65;0.85;;;13.10;83.60;;;;;;5016198;28;20029;-68
2021/01/22 10:43:15;;;;;;;1.92;0.73;;;13.10;99.90;;;;;;5015883;28;20068;-67
2021/01/22 10:45:40;;;;;;;1.25;0.70;;;13.20;1.00;;;;;;5016184;28;20486;-68
2021/01/22 10:48:06;;;;;;;4.40;0.77;;;13.30;1.00;;;;;;5016961;28;20397;-67
2021/01/22 10:50:32;;;;;;;1.50;0.63;;;13.30;1.00;;;;;;5016364;28;20034;-66
2021/01/22 10:52:58;;;;;;;1.20;0.60;;;13.50;99.90;;;;;;5015128;28;20030;-68
2021/01/22 10:55:23;;;;;;;2.10;0.90;;;13.50;99.90;;;;;;5015934;28;20053;-68
2021/01/22 10:57:49;;;;;;;2.47;0.63;;;13.60;96.90;;;;;;5016253;28;20076;-68
2021/01/22 11:00:15;;;;;;;2.53;1.10;;;13.60;24.70;;;;;;5016737;28;20041;-69
2021/01/22 11:02:41;;;;;;;3.70;0.80;;;13.70;1.00;;;;;;5015027;28;20405;-68
2021/01/22 11:05:08;;;;;;;2.88;0.93;;;13.80;1.00;;;;;;5015514;28;20108;-68
2021/01/22 11:07:33;;;;;;;5.05;1.33;;;13.90;99.90;;;;;;5016202;28;20024;-68
2021/01/22 11:09:59;;;;;;;2.72;0.60;;;13.90;99.90;;;;;;5014170;28;20022;-68
2021/01/22 11:12:25;;;;;;;4.03;0.80;;;13.80;99.90;;;;;;5015704;28;20018;-68
2021/01/22 11:14:50;;;;;;;1.38;0.70;;;14.10;99.90;;;;;;5015386;28;20018;-69
2021/01/22 11:17:16;;;;;;;1.85;0.70;;;14.10;99.90;;;;;;5015176;28;20022;-67
2021/01/22 11:19:41;;;;;;;5.22;0.80;;;14.40;99.90;;;;;;5014893;28;20425;-69
2021/01/22 11:22:07;;;;;;;2.38;0.70;;;14.40;99.90;;;;;;5015438;28;20026;-68
2021/01/22 11:24:35;;;;;;;3.78;1.00;;;14.40;99.90;;;;;;5014117;28;20046;-68
2021/01/22 11:27:01;;;;;;;3.88;0.80;;;14.30;99.90;;;;;;5014911;28;20038;-66
2021/01/22 11:29:27;;;;;;;4.63;1.00;;;14.10;70.90;;;;;;5018616;28;20195;-66
2021/01/22 11:31:52;;;;;;;18.10;1.77;;;14.00;1.00;;;;;;5019244;28;20025;-68
2021/01/22 11:34:18;;;;;;;2.63;0.88;;;13.90;1.00;;;;;;5018474;28;20029;-67
2021/01/22 11:36:44;;;;;;;2.40;0.60;;;13.80;1.00;;;;;;5018036;28;20033;-68
2021/01/22 11:39:09;;;;;;;2.83;0.90;;;13.70;91.70;;;;;;5015885;28;20029;-69
2021/01/22 11:41:35;;;;;;;5.95;0.55;;;13.70;99.90;;;;;;5015409;28;20040;-69
2021/01/22 11:44:00;;;;;;;0.88;0.50;;;13.90;1.00;;;;;;5017288;28;20021;-68
2021/01/22 11:46:26;;;;;;;1.38;0.60;;;14.10;67.70;;;;;;5019987;28;20067;-68
2021/01/22 11:48:52;;;;;;;1.55;0.73;;;14.10;1.00;;;;;;5020135;28;20480;-67
2021/01/22 11:51:18;;;;;;;3.95;0.63;;;14.20;99.90;;;;;;5018375;28;20058;-67
2021/01/22 11:53:44;;;;;;;0.93;0.73;;;14.20;99.90;;;;;;5019983;28;20505;-68
2021/01/22 11:56:10;;;;;;;1.85;1.00;;;14.20;99.90;;;;;;5019290;28;20065;-68
2021/01/22 11:58:36;;;;;;;0.70;0.52;;;14.20;99.90;;;;;;5018627;28;20033;-67
2021/01/22 12:01:01;;;;;;;1.33;0.60;;;14.20;99.90;;;;;;5017032;28;20022;-67
2021/01/22 12:03:27;;;;;;;2.50;0.80;;;14.00;99.90;;;;;;5016439;28;20030;-67
2021/01/22 12:05:52;;;;;;;2.25;0.55;;;14.00;1.00;;;;;;5019563;28;20076;-66
2021/01/22 12:08:18;;;;;;;1.63;0.57;;;14.10;1.00;;;;;;5021033;28;20030;-67
2021/01/22 12:10:44;;;;;;;1.63;0.77;;;13.90;1.00;;;;;;5019272;28;20571;-68
2021/01/22 12:13:09;;;;;;;1.35;0.50;;;13.80;31.30;;;;;;5017143;28;20034;-68
2021/01/22 12:15:35;;;;;;;2.35;0.60;;;13.90;1.00;;;;;;5015485;28;20029;-68
2021/01/22 12:18:01;;;;;;;1.58;0.60;;;14.00;1.00;;;;;;5014672;28;20038;-69
2021/01/22 12:20:26;;;;;;;2.78;0.73;;;13.90;99.90;;;;;;5012725;28;20279;-67
2021/01/22 12:22:52;;;;;;;3.70;0.73;;;14.00;1.00;;;;;;5013985;28;20485;-68
2021/01/22 12:25:18;;;;;;;1.45;0.65;;;14.00;39.90;;;;;;5014148;28;20444;-69
2021/01/22 12:27:43;;;;;;;3.30;1.42;;;13.90;1.00;;;;;;5014804;28;20487;-67
2021/01/22 12:30:09;;;;;;;3.78;0.50;;;14.00;1.00;;;;;;5014871;28;20059;-67
2021/01/22 12:32:35;;;;;;;5.03;1.00;;;14.20;99.90;;;;;;5014117;28;20028;-69
2021/01/22 12:35:00;;;;;;;9.73;1.58;;;14.40;1.00;;;;;;5014762;28;20101;-69
2021/01/22 12:37:26;;;;;;;3.45;0.90;;;14.50;1.00;;;;;;5029271;28;20030;-72
2021/01/22 12:39:52;;;;;;;6.13;1.05;;;14.50;99.90;;;;;;5013495;28;20100;-71
2021/01/22 12:42:18;;;;;;;2.08;0.68;;;14.60;99.90;;;;;;5014543;28;20362;-72
2021/01/22 12:44:43;;;;;;;1.48;0.80;;;14.60;1.00;;;;;;5014677;28;20017;-71
2021/01/22 12:47:09;;;;;;;4.18;0.90;;;14.70;99.90;;;;;;5014401;28;20029;-69
2021/01/22 12:49:34;;;;;;;1.60;0.65;;;14.70;99.90;;;;;;5013964;28;20096;-70
2021/01/22 12:52:00;;;;;;;7.32;1.30;;;14.70;99.90;;;;;;5014063;28;20029;-69
2021/01/22 12:54:26;;;;;;;2.55;0.50;;;14.70;99.90;;;;;;5013683;28;20037;-71
2021/01/22 12:56:51;;;;;;;0.68;0.52;;;14.70;99.90;;;;;;5023108;28;20041;-70
2021/01/22 12:59:17;;;;;;;1.17;0.70;;;14.50;99.90;;;;;;5022822;28;20389;-69